Time;durP1;ratioP1;P1;durP2;ratioP2;P2;SDS_P1;SDS_P2;PMS_P1;PMS_P2;Temp;Humidity;BMP_temperature;BMP_pressure;BME280_temperature;BME280_humidity;BME280_pressure;Samples;Min_cycle;Max_cycle;Signal;HPM_P1;HPM_P2
2022/01/20 00:01:49;;;;;;;3.58;1.35;;;;;;;;;;5045402;28;20467;-70
2022/01/20 00:04:25;;;;;;;4.65;1.98;;;14.10;65.80;;;;;;5033715;28;20140;-70
2022/01/20 00:25:45;;;;;;;3.95;1.65;;;13.80;65.60;;;;;;5033482;28;20473;-70
2022/01/20 00:26:20;;;;;;;6.60;1.90;;;13.90;66.00;;;;;;5034012;28;20056;-70
2022/01/20 00:28:51;;;;;;;5.82;2.30;;;13.90;61.10;;;;;;5033507;28;20064;-70
2022/01/20 00:34:17;;;;;;;4.45;1.92;;;13.80;65.80;;;;;;5021730;28;20053;-70
2022/01/20 00:39:29;;;;;;;5.28;1.85;;;13.90;65.90;;;;;;5034384;28;20054;-70
2022/01/20 00:41:56;;;;;;;4.88;1.75;;;13.90;65.60;;;;;;5034115;28;20412;-70
2022/01/20 00:44:24;;;;;;;3.88;1.60;;;13.80;65.80;;;;;;5033075;28;20143;-70
2022/01/20 00:46:50;;;;;;;5.97;1.92;;;13.90;65.80;;;;;;5032958;28;20140;-70
2022/01/20 00:49:17;;;;;;;3.67;1.55;;;;;;;;;;5033175;28;20148;-70
2022/01/20 00:51:45;;;;;;;3.75;1.70;;;13.90;65.80;;;;;;5049583;28;20140;-70
2022/01/20 00:54:12;;;;;;;5.43;1.60;;;13.60;63.40;;;;;;5040933;28;20566;-70
2022/01/20 00:56:38;;;;;;;4.15;1.70;;;13.70;66.00;;;;;;5053647;28;20128;-70
2022/01/20 00:59:05;;;;;;;4.85;1.92;;;13.80;66.10;;;;;;5054005;28;20128;-70
2022/01/20 01:01:33;;;;;;;4.20;1.63;;;13.80;61.70;;;;;;5046200;28;20550;-70
2022/01/20 01:04:00;;;;;;;3.95;1.52;;;13.70;61.20;;;;;;5033846;28;20128;-70
2022/01/20 01:06:42;;;;;;;2.65;1.50;;;13.70;65.90;;;;;;5043180;28;20048;-70
2022/01/20 01:09:09;;;;;;;5.00;1.70;;;13.80;65.90;;;;;;5054046;28;20055;-70
2022/01/20 01:11:37;;;;;;;4.53;2.03;;;;;;;;;;5052215;28;20132;-70
2022/01/20 01:14:05;;;;;;;4.45;1.60;;;;;;;;;;5052561;28;20116;-70
2022/01/20 01:20:00;;;;;;;3.13;1.38;;;13.80;66.00;;;;;;5053275;28;20053;-70
2022/01/20 01:22:21;;;;;;;3.43;1.47;;;;;;;;;;5035801;28;20426;-70
2022/01/20 01:24:50;;;;;;;3.05;1.45;;;13.60;57.90;;;;;;5033433;28;20071;-70
2022/01/20 01:27:17;;;;;;;2.95;1.40;;;14.00;66.30;;;;;;5033274;28;20150;-70
2022/01/20 01:30:01;;;;;;;4.25;1.58;;;13.60;65.90;;;;;;5032325;28;20160;-70
2022/01/20 01:32:37;;;;;;;4.43;1.77;;;13.60;57.90;;;;;;5033076;28;20503;-70
2022/01/20 01:35:06;;;;;;;3.03;1.50;;;13.70;66.30;;;;;;5033335;28;20115;-70
2022/01/20 01:38:25;;;;;;;3.63;1.30;;;13.50;66.10;;;;;;5033035;28;20053;-70
2022/01/20 01:40:24;;;;;;;2.88;1.40;;;13.30;65.90;;;;;;5032796;28;20045;-70
2022/01/20 01:42:51;;;;;;;4.55;1.60;;;13.70;66.10;;;;;;5033063;28;20049;-69
2022/01/20 01:45:19;;;;;;;3.88;1.70;;;13.80;66.10;;;;;;5033069;28;20049;-70
2022/01/20 01:47:47;;;;;;;4.13;1.50;;;13.60;66.20;;;;;;5032843;28;20084;-70
2022/01/20 01:50:14;;;;;;;3.45;1.50;;;13.70;66.30;;;;;;5031543;28;20136;-70
2022/01/20 01:52:41;;;;;;;4.25;1.35;;;13.30;65.80;;;;;;5031872;28;20111;-70
2022/01/20 01:55:08;;;;;;;4.72;1.63;;;13.50;63.70;;;;;;5032606;28;20136;-70
2022/01/20 01:57:35;;;;;;;1.88;1.20;;;;;;;;;;5032867;28;20514;-70
2022/01/20 02:00:03;;;;;;;3.80;1.25;;;13.60;65.90;;;;;;5048123;28;20132;-70
2022/01/20 02:02:30;;;;;;;3.13;1.27;;;13.70;65.80;;;;;;5040496;28;20528;-70
2022/01/20 02:04:58;;;;;;;4.00;1.58;;;13.60;65.90;;;;;;5052483;28;20053;-70
2022/01/20 02:18:43;;;;;;;2.63;1.20;;;13.60;65.80;;;;;;5051360;28;20056;-70
2022/01/20 02:21:12;;;;;;;3.25;1.27;;;13.70;66.10;;;;;;5042008;28;20057;-70
2022/01/20 02:23:38;;;;;;;3.03;1.40;;;13.70;65.80;;;;;;5031165;28;20140;-70
2022/01/20 02:26:05;;;;;;;3.17;1.30;;;;;;;;;;5032075;28;20076;-70
2022/01/20 02:28:32;;;;;;;1.90;1.10;;;13.20;62.50;;;;;;5032393;28;20220;-70
2022/01/20 02:30:59;;;;;;;2.90;1.25;;;13.80;65.70;;;;;;5032159;28;20050;-70
2022/01/20 02:33:27;;;;;;;2.15;1.15;;;;;;;;;;5032074;28;20041;-70
2022/01/20 02:35:55;;;;;;;2.92;1.00;;;13.70;65.60;;;;;;5032006;28;20057;-70
2022/01/20 02:38:28;;;;;;;2.10;1.20;;;13.60;65.60;;;;;;5032268;28;20049;-69
2022/01/20 02:46:23;;;;;;;2.03;1.10;;;13.70;65.90;;;;;;5030916;28;20053;-70
2022/01/20 02:48:50;;;;;;;2.13;1.00;;;;;;;;;;5031987;28;20046;-70
2022/01/20 02:51:17;;;;;;;2.17;1.00;;;13.70;65.70;;;;;;5047284;28;20421;-70
2022/01/20 02:53:45;;;;;;;1.92;1.08;;;13.70;65.70;;;;;;5034222;28;20055;-70
2022/01/20 02:56:12;;;;;;;2.15;1.00;;;14.00;65.90;;;;;;5051331;28;20045;-70
2022/01/20 02:58:39;;;;;;;2.17;1.20;;;;;;;;;;5047227;28;20145;-70
2022/01/20 03:01:06;;;;;;;2.20;1.20;;;13.90;65.70;;;;;;5036459;28;20064;-70
2022/01/20 03:03:34;;;;;;;2.97;1.02;;;13.90;65.70;;;;;;5034044;28;20157;-70
2022/01/20 03:06:00;;;;;;;2.40;1.00;;;13.80;65.60;;;;;;5051518;28;20049;-70
2022/01/20 03:08:27;;;;;;;1.63;0.95;;;13.90;62.80;;;;;;5052063;28;20131;-70
2022/01/20 03:10:55;;;;;;;2.50;1.30;;;13.80;65.30;;;;;;5050505;28;20144;-69
2022/01/20 03:13:22;;;;;;;2.25;1.10;;;13.90;65.30;;;;;;5052003;28;20120;-70
2022/01/20 03:15:49;;;;;;;2.53;1.10;;;13.90;65.50;;;;;;5048457;28;20534;-70
2022/01/20 03:18:15;;;;;;;1.60;1.00;;;14.00;60.20;;;;;;5030548;28;20132;-70
2022/01/20 03:20:42;;;;;;;2.97;1.05;;;13.90;65.60;;;;;;5036163;28;20482;-69
2022/01/20 03:23:09;;;;;;;2.05;1.17;;;13.70;65.20;;;;;;5051559;28;20136;-70
2022/01/20 03:25:36;;;;;;;2.55;1.10;;;;;;;;;;5051344;28;20472;-70
2022/01/20 03:28:04;;;;;;;2.58;1.20;;;13.90;65.30;;;;;;5051626;28;20127;-70
2022/01/20 03:30:31;;;;;;;1.95;0.93;;;13.90;65.30;;;;;;5050315;28;20060;-70
2022/01/20 03:32:58;;;;;;;2.42;1.00;;;13.70;61.90;;;;;;5050182;28;20132;-70
2022/01/20 03:35:24;;;;;;;1.95;1.10;;;14.00;61.10;;;;;;5050293;28;20581;-70
2022/01/20 03:37:51;;;;;;;3.25;0.95;;;13.90;65.20;;;;;;5051402;28;20055;-70
2022/01/20 03:40:20;;;;;;;1.67;1.00;;;13.80;61.00;;;;;;5051744;28;20469;-70
2022/01/20 03:42:47;;;;;;;3.00;1.10;;;13.90;65.30;;;;;;5050328;28;20060;-70
2022/01/20 03:45:16;;;;;;;2.10;1.05;;;14.00;62.40;;;;;;5050172;28;20139;-70
2022/01/20 03:47:43;;;;;;;2.08;1.08;;;;;;;;;;5051275;28;20080;-70
2022/01/20 03:50:59;;;;;;;1.08;0.82;;;14.00;65.50;;;;;;5051492;28;20118;-70
2022/01/20 03:52:56;;;;;;;2.55;1.10;;;13.70;64.90;;;;;;5043003;28;20099;-70
2022/01/20 03:55:23;;;;;;;4.00;1.02;;;13.40;64.90;;;;;;5043338;28;20135;-70
2022/01/20 03:57:50;;;;;;;2.67;1.00;;;;;;;;;;5051284;28;20131;-70
2022/01/20 04:00:18;;;;;;;3.10;1.15;;;14.00;65.40;;;;;;5050312;28;20136;-70
2022/01/20 04:02:45;;;;;;;3.00;1.30;;;13.70;65.20;;;;;;5034419;28;20473;-70
2022/01/20 04:05:12;;;;;;;3.38;1.25;;;14.00;65.50;;;;;;5030364;28;20053;-70
2022/01/20 04:07:39;;;;;;;3.17;1.20;;;;;;;;;;5031103;28;20411;-70
2022/01/20 04:10:06;;;;;;;2.67;1.00;;;13.90;65.40;;;;;;5033071;28;20073;-70
2022/01/20 04:12:33;;;;;;;2.63;1.00;;;13.90;65.10;;;;;;5033485;28;20124;-70
2022/01/20 04:15:06;;;;;;;2.97;1.10;;;13.90;65.20;;;;;;5034971;28;20129;-70
2022/01/20 04:17:35;;;;;;;3.30;1.02;;;14.20;65.30;;;;;;5034391;28;20049;-70
2022/01/20 04:20:03;;;;;;;2.35;1.20;;;14.00;65.20;;;;;;5034673;28;20085;-70
2022/01/20 04:22:30;;;;;;;4.13;1.48;;;14.10;65.20;;;;;;5052981;28;20136;-70
2022/01/20 04:24:57;;;;;;;2.03;1.20;;;14.10;61.40;;;;;;5053405;28;20091;-70
2022/01/20 04:27:24;;;;;;;3.55;1.30;;;14.00;65.30;;;;;;5053027;28;20136;-70
2022/01/20 04:29:50;;;;;;;3.38;1.23;;;14.10;65.10;;;;;;5053367;28;20132;-70
2022/01/20 04:32:18;;;;;;;3.55;1.25;;;;;;;;;;5054218;28;20049;-70
2022/01/20 04:34:46;;;;;;;3.20;1.17;;;14.00;65.10;;;;;;5054609;28;20053;-70
2022/01/20 04:37:13;;;;;;;2.83;1.20;;;14.00;65.10;;;;;;5053061;28;20057;-70
2022/01/20 04:39:45;;;;;;;5.03;1.70;;;13.90;65.20;;;;;;5053132;28;20079;-70
2022/01/20 04:42:12;;;;;;;2.70;1.10;;;14.00;65.30;;;;;;5054396;28;20375;-70
2022/01/20 04:44:45;;;;;;;2.58;1.13;;;;;;;;;;5054066;28;20494;-70
2022/01/20 04:47:25;;;;;;;2.78;1.23;;;;;;;;;;5052873;28;20109;-70
2022/01/20 04:58:07;;;;;;;3.42;1.40;;;14.00;65.10;;;;;;5033010;28;20086;-70
2022/01/20 05:00:34;;;;;;;2.83;1.23;;;;;;;;;;5034052;28;20653;-70
2022/01/20 05:03:03;;;;;;;1.77;1.00;;;13.90;64.90;;;;;;5032438;28;20387;-70
2022/01/20 05:05:31;;;;;;;2.42;1.13;;;14.20;57.00;;;;;;5032425;28;20140;-70
2022/01/20 05:07:58;;;;;;;2.95;1.30;;;;;;;;;;5032382;28;20177;-70
2022/01/20 05:10:27;;;;;;;3.13;1.20;;;13.80;64.90;;;;;;5032616;28;20136;-70
2022/01/20 05:13:06;;;;;;;2.05;0.95;;;;;;;;;;5032082;28;20132;-70
2022/01/20 05:15:33;;;;;;;2.83;1.13;;;14.00;65.20;;;;;;5032276;28;20064;-70
2022/01/20 05:18:01;;;;;;;2.58;1.13;;;;;;;;;;5032137;28;20495;-70
2022/01/20 05:20:27;;;;;;;4.35;1.55;;;14.00;64.90;;;;;;5031510;28;20104;-70
2022/01/20 05:22:55;;;;;;;3.17;1.20;;;14.00;65.10;;;;;;5032298;28;20124;-70
2022/01/20 05:25:22;;;;;;;4.82;1.23;;;;;;;;;;5031938;28;20243;-70
2022/01/20 05:27:49;;;;;;;2.95;1.30;;;14.00;64.90;;;;;;5048874;28;20133;-70
2022/01/20 05:30:16;;;;;;;2.47;1.20;;;13.90;64.90;;;;;;5032868;28;20497;-69
2022/01/20 05:32:43;;;;;;;3.03;1.10;;;;;;;;;;5032994;28;20140;-70
2022/01/20 05:35:10;;;;;;;2.30;1.23;;;14.10;65.10;;;;;;5033282;28;20136;-70
2022/01/20 05:37:37;;;;;;;3.10;1.20;;;;;;;;;;5033016;28;20050;-70
2022/01/20 05:40:07;;;;;;;3.45;1.20;;;14.00;65.20;;;;;;5048418;28;20049;-70
2022/01/20 05:42:35;;;;;;;4.85;1.15;;;13.80;64.70;;;;;;5032925;28;20050;-70
2022/01/20 05:45:03;;;;;;;3.45;1.08;;;13.90;65.00;;;;;;5032828;28;20080;-70
2022/01/20 05:47:31;;;;;;;3.75;1.20;;;13.90;61.50;;;;;;5041637;28;20537;-70
2022/01/20 05:49:58;;;;;;;2.67;1.20;;;13.90;64.70;;;;;;5051459;28;20087;-70
2022/01/20 05:52:25;;;;;;;3.47;1.08;;;;;;;;;;5047602;28;20060;-70
2022/01/20 05:54:52;;;;;;;2.70;1.30;;;;;;;;;;5031752;28;20140;-70
2022/01/20 05:57:20;;;;;;;2.90;1.20;;;13.90;56.60;;;;;;5031410;28;20058;-70
2022/01/20 05:59:48;;;;;;;2.95;1.17;;;;;;;;;;5031193;28;20240;-70
2022/01/20 06:02:29;;;;;;;3.92;1.38;;;13.80;64.80;;;;;;5031596;28;20450;-70
2022/01/20 06:04:56;;;;;;;2.53;1.20;;;14.20;64.90;;;;;;5031619;28;20110;-70
2022/01/20 06:07:23;;;;;;;1.58;0.93;;;13.90;64.70;;;;;;5031248;28;20053;-70
2022/01/20 06:09:50;;;;;;;2.13;1.17;;;;;;;;;;5032574;28;20136;-70
2022/01/20 06:12:17;;;;;;;2.90;1.10;;;14.00;64.80;;;;;;5031161;28;20053;-70
2022/01/20 06:14:45;;;;;;;2.95;1.38;;;13.90;56.60;;;;;;5032376;28;20128;-70
2022/01/20 06:17:11;;;;;;;2.15;1.00;;;14.00;64.90;;;;;;5031064;28;20053;-70
2022/01/20 06:19:38;;;;;;;3.58;1.33;;;14.10;64.60;;;;;;5032361;28;20100;-70
2022/01/20 06:22:05;;;;;;;2.63;1.23;;;13.90;64.80;;;;;;5031830;28;20056;-69
2022/01/20 06:24:32;;;;;;;3.97;1.33;;;;;;;;;;5031136;28;20148;-70
2022/01/20 06:26:59;;;;;;;3.33;1.17;;;;;;;;;;5032084;28;20075;-70
2022/01/20 06:29:26;;;;;;;3.22;1.10;;;;;;;;;;5047621;28;20088;-70
2022/01/20 06:31:54;;;;;;;2.35;1.00;;;14.00;65.00;;;;;;5046586;28;20060;-70
2022/01/20 06:34:21;;;;;;;2.78;1.08;;;13.90;63.80;;;;;;5030949;28;20115;-70
2022/01/20 06:36:48;;;;;;;3.85;1.20;;;14.00;64.80;;;;;;5030854;28;20140;-70
2022/01/20 06:39:14;;;;;;;2.45;1.02;;;14.10;60.80;;;;;;5032063;28;20152;-70
2022/01/20 06:41:42;;;;;;;2.30;1.30;;;;;;;;;;5032028;28;20055;-70
2022/01/20 06:44:09;;;;;;;3.88;1.17;;;;;;;;;;5044202;28;20053;-70
2022/01/20 06:46:36;;;;;;;3.60;1.25;;;14.00;64.80;;;;;;5051920;28;20072;-70
2022/01/20 06:49:04;;;;;;;3.17;1.30;;;13.90;56.50;;;;;;5050770;28;20056;-70
2022/01/20 06:51:31;;;;;;;3.47;1.13;;;;;;;;;;5051629;28;20508;-70
2022/01/20 06:53:58;;;;;;;1.45;1.00;;;14.00;64.90;;;;;;5034142;28;20059;-70
2022/01/20 06:56:25;;;;;;;4.22;1.20;;;;;;;;;;5031769;28;20099;-70
2022/01/20 06:58:52;;;;;;;3.28;0.90;;;13.80;64.60;;;;;;5031899;28;20041;-70
2022/01/20 07:01:20;;;;;;;2.38;1.17;;;13.40;59.00;;;;;;5030663;28;20132;-70
2022/01/20 07:03:47;;;;;;;2.53;1.10;;;;;;;;;;5031710;28;20509;-70
2022/01/20 07:06:15;;;;;;;4.95;1.25;;;13.80;64.80;;;;;;5031319;28;20128;-70
2022/01/20 07:08:42;;;;;;;3.72;1.20;;;13.90;61.20;;;;;;5030779;28;20132;-70
2022/01/20 07:11:09;;;;;;;2.75;1.55;;;13.40;56.80;;;;;;5040716;28;20129;-70
2022/01/20 07:13:36;;;;;;;3.63;1.17;;;;;;;;;;5031626;28;20045;-70
2022/01/20 07:16:03;;;;;;;3.35;1.00;;;14.10;64.40;;;;;;5031395;28;20067;-70
2022/01/20 07:18:30;;;;;;;3.78;1.60;;;;;;;;;;5030379;28;20053;-70
2022/01/20 07:20:57;;;;;;;2.10;1.20;;;;;;;;;;5031280;28;20042;-70
2022/01/20 07:23:25;;;;;;;2.50;1.00;;;14.80;57.30;;;;;;5047069;28;20125;-70
2022/01/20 07:25:52;;;;;;;2.83;1.30;;;14.00;64.60;;;;;;5031337;28;20128;-70
2022/01/20 07:28:19;;;;;;;1.75;1.08;;;13.80;64.60;;;;;;5031713;28;20472;-70
2022/01/20 07:30:46;;;;;;;2.97;1.45;;;;;;;;;;5030437;28;20049;-70
2022/01/20 07:33:13;;;;;;;3.20;1.20;;;13.70;64.50;;;;;;5031047;28;20132;-70
2022/01/20 07:35:39;;;;;;;3.05;1.20;;;13.90;64.60;;;;;;5031523;28;20128;-70
2022/01/20 07:38:06;;;;;;;3.67;1.52;;;14.00;61.30;;;;;;5030366;28;20095;-70
2022/01/20 07:40:34;;;;;;;3.35;1.15;;;14.00;64.60;;;;;;5044809;28;20051;-70
2022/01/20 07:43:01;;;;;;;3.83;1.10;;;14.00;64.90;;;;;;5051524;28;20571;-70
2022/01/20 07:45:28;;;;;;;2.22;1.00;;;;;;;;;;5046238;28;20133;-70
2022/01/20 07:47:55;;;;;;;4.78;2.17;;;13.90;64.60;;;;;;5043711;28;20120;-70
2022/01/20 07:50:21;;;;;;;2.72;1.20;;;14.00;64.90;;;;;;5037320;28;20131;-70
2022/01/20 07:52:49;;;;;;;4.13;1.27;;;;;;;;;;5052306;28;20516;-71
2022/01/20 07:55:15;;;;;;;3.30;1.52;;;13.50;64.60;;;;;;5042631;28;20207;-71
2022/01/20 07:57:44;;;;;;;3.90;1.30;;;13.90;56.30;;;;;;5049997;28;20190;-71
2022/01/20 08:00:11;;;;;;;2.35;1.05;;;13.80;56.20;;;;;;5054652;28;20055;-70
2022/01/20 08:02:38;;;;;;;3.83;1.42;;;13.90;64.80;;;;;;5054527;28;20052;-71
2022/01/20 08:05:05;;;;;;;3.55;1.20;;;13.90;58.80;;;;;;5053643;28;20049;-72
2022/01/20 08:07:32;;;;;;;2.42;1.13;;;13.90;64.50;;;;;;5054651;28;20239;-72
2022/01/20 08:09:59;;;;;;;5.05;1.40;;;;;;;;;;5053465;28;20132;-72
2022/01/20 08:12:26;;;;;;;3.33;1.30;;;14.00;64.50;;;;;;5053240;28;20543;-71
2022/01/20 08:14:54;;;;;;;4.82;1.50;;;14.00;56.10;;;;;;5052893;28;20128;-71
2022/01/20 08:17:21;;;;;;;3.08;1.20;;;;;;;;;;5053490;28;20140;-71
2022/01/20 08:19:48;;;;;;;3.25;1.30;;;14.20;64.20;;;;;;5053736;28;20450;-71
2022/01/20 08:22:15;;;;;;;3.90;1.30;;;14.10;62.10;;;;;;5054057;28;20049;-71
2022/01/20 08:24:42;;;;;;;2.63;1.20;;;14.20;63.90;;;;;;5053232;28;20481;-71
2022/01/20 08:27:09;;;;;;;2.92;1.30;;;;;;;;;;5053140;28;20136;-71
2022/01/20 08:29:36;;;;;;;2.45;1.17;;;14.30;63.90;;;;;;5053527;28;20076;-71
2022/01/20 08:32:04;;;;;;;2.42;1.30;;;14.40;64.20;;;;;;5045351;28;20060;-71
2022/01/20 08:34:31;;;;;;;3.10;1.30;;;;;;;;;;5039441;28;20132;-71
2022/01/20 08:36:59;;;;;;;3.92;1.40;;;14.30;63.90;;;;;;5047869;28;20140;-71
2022/01/20 08:42:16;;;;;;;2.95;1.00;;;;;;;;;;5032117;28;20041;-71
2022/01/20 08:44:42;;;;;;;3.08;1.35;;;14.40;63.60;;;;;;5044418;28;20465;-72
2022/01/20 08:47:16;;;;;;;3.42;1.50;;;14.40;55.40;;;;;;5052835;28;20734;-71
2022/01/20 08:49:43;;;;;;;2.58;1.00;;;13.70;63.00;;;;;;5053178;28;20549;-71
2022/01/20 08:52:10;;;;;;;4.43;1.35;;;;;;;;;;5051121;28;20059;-71
2022/01/20 08:54:37;;;;;;;3.88;1.17;;;14.50;63.60;;;;;;5042920;28;20135;-70
2022/01/20 08:57:04;;;;;;;3.15;1.20;;;;;;;;;;5054052;28;20055;-71
2022/01/20 08:59:31;;;;;;;2.80;1.10;;;;;;;;;;5047630;28;20128;-72
2022/01/20 09:01:58;;;;;;;2.63;1.23;;;;;;;;;;5029210;28;20061;-71
2022/01/20 09:04:27;;;;;;;3.13;1.20;;;14.60;61.00;;;;;;5048719;28;20498;-72
2022/01/20 09:06:53;;;;;;;2.35;1.10;;;14.20;62.90;;;;;;5050346;28;20127;-72
2022/01/20 09:09:21;;;;;;;3.67;1.20;;;;;;;;;;5050203;28;20051;-71
2022/01/20 09:12:04;;;;;;;2.65;1.10;;;;;;;;;;5051870;28;20483;-72
2022/01/20 09:17:15;;;;;;;2.40;1.05;;;14.30;62.90;;;;;;5042790;28;20056;-72
2022/01/20 09:19:43;;;;;;;3.63;1.52;;;14.20;63.00;;;;;;5043808;28;20136;-72
2022/01/20 09:22:11;;;;;;;3.53;1.20;;;14.50;63.10;;;;;;5051526;28;20057;-72
2022/01/20 09:24:37;;;;;;;4.20;1.17;;;14.70;62.80;;;;;;5052205;28;20053;-72
2022/01/20 09:27:04;;;;;;;5.53;1.50;;;14.30;62.70;;;;;;5051968;28;20141;-72
2022/01/20 09:29:31;;;;;;;6.88;1.58;;;14.20;61.50;;;;;;5051969;28;20128;-71
2022/01/20 09:31:59;;;;;;;6.53;1.92;;;13.90;63.20;;;;;;5045928;28;20452;-72
2022/01/20 09:34:26;;;;;;;8.70;2.20;;;14.80;64.30;;;;;;5032048;28;20057;-72
2022/01/20 09:36:54;;;;;;;11.02;2.63;;;14.80;64.40;;;;;;5031715;28;20136;-71
2022/01/20 09:39:21;;;;;;;12.55;2.83;;;14.10;64.50;;;;;;5033221;28;20060;-70
2022/01/20 09:41:47;;;;;;;13.05;2.55;;;14.80;65.20;;;;;;5030586;28;20057;-71
2022/01/20 09:44:15;;;;;;;9.50;2.35;;;14.10;64.90;;;;;;5031818;28;20583;-72
2022/01/20 09:46:41;;;;;;;10.95;2.50;;;14.80;60.70;;;;;;5031573;28;20128;-72
2022/01/20 09:49:11;;;;;;;6.05;2.10;;;14.30;64.80;;;;;;5039139;28;20106;-71
2022/01/20 09:51:38;;;;;;;7.82;1.90;;;14.40;64.90;;;;;;5032909;28;20053;-71
2022/01/20 09:54:06;;;;;;;5.40;2.28;;;15.00;65.40;;;;;;5043635;28;20509;-72
2022/01/20 09:56:33;;;;;;;6.32;2.28;;;15.00;65.30;;;;;;5031445;28;20128;-72
2022/01/20 09:59:00;;;;;;;5.55;1.70;;;;;;;;;;5031474;28;20140;-72
2022/01/20 10:01:37;;;;;;;4.97;1.67;;;14.60;64.60;;;;;;5032500;28;20131;-72
2022/01/20 10:04:04;;;;;;;4.88;1.80;;;15.50;57.60;;;;;;5041201;28;20128;-72
2022/01/20 10:06:31;;;;;;;8.57;1.90;;;15.30;65.10;;;;;;5033135;28;20571;-72
2022/01/20 10:08:58;;;;;;;4.88;1.60;;;15.00;59.90;;;;;;5036179;28;20135;-71
2022/01/20 10:11:27;;;;;;;8.20;1.85;;;15.60;65.00;;;;;;5050849;28;20136;-72
2022/01/20 10:13:55;;;;;;;5.25;1.50;;;15.00;64.70;;;;;;5051197;28;20472;-71
2022/01/20 10:16:22;;;;;;;9.63;2.05;;;;;;;;;;5049975;28;20135;-70
2022/01/20 10:18:50;;;;;;;9.90;2.67;;;15.10;64.60;;;;;;5031295;28;20152;-72
2022/01/20 10:21:18;;;;;;;10.32;2.47;;;15.00;56.60;;;;;;5035184;28;20472;-72
2022/01/20 10:23:47;;;;;;;8.40;2.50;;;15.20;64.40;;;;;;5050845;28;20131;-72
2022/01/20 10:26:14;;;;;;;11.95;2.75;;;15.10;64.30;;;;;;5049862;28;20061;-72
2022/01/20 10:29:01;;;;;;;10.68;2.72;;;15.20;64.70;;;;;;5039812;28;20088;-72
2022/01/20 10:31:36;;;;;;;9.88;2.20;;;15.10;64.40;;;;;;5031773;28;20132;-72
2022/01/20 10:34:03;;;;;;;8.60;2.40;;;15.20;59.20;;;;;;5038187;28;20071;-72
2022/01/20 10:36:37;;;;;;;10.15;2.92;;;14.60;59.20;;;;;;5050777;28;20139;-72
2022/01/20 10:39:04;;;;;;;7.15;2.53;;;15.20;64.00;;;;;;5050996;28;20413;-72
2022/01/20 10:41:31;;;;;;;4.70;2.10;;;15.20;56.10;;;;;;5050177;28;20092;-72
2022/01/20 10:44:08;;;;;;;7.50;3.08;;;15.10;64.10;;;;;;5050745;28;20128;-72
2022/01/20 10:46:49;;;;;;;8.57;2.17;;;14.90;63.70;;;;;;5040005;28;20128;-72
2022/01/20 10:49:15;;;;;;;7.75;2.35;;;15.30;63.90;;;;;;5030706;28;20145;-72
2022/01/20 10:51:43;;;;;;;5.15;1.88;;;14.90;63.60;;;;;;5030628;28;20132;-72
2022/01/20 10:54:13;;;;;;;7.85;2.13;;;15.40;64.00;;;;;;5041462;28;20409;-72
2022/01/20 10:56:52;;;;;;;6.72;2.13;;;14.50;63.40;;;;;;5030493;28;20058;-72
2022/01/20 10:59:21;;;;;;;5.68;2.22;;;15.30;55.80;;;;;;5030815;28;20057;-71
2022/01/20 11:01:59;;;;;;;6.82;2.00;;;15.40;63.40;;;;;;5030845;28;20145;-73
2022/01/20 11:04:26;;;;;;;4.10;1.77;;;15.30;61.20;;;;;;5030261;28;20133;-73
2022/01/20 11:06:55;;;;;;;7.03;2.20;;;14.40;63.40;;;;;;5030661;28;20084;-73
2022/01/20 11:09:23;;;;;;;4.68;2.00;;;;;;;;;;5033390;28;20056;-73
2022/01/20 11:11:50;;;;;;;5.40;2.05;;;;;;;;;;5031459;28;20049;-73
2022/01/20 11:14:17;;;;;;;7.72;2.05;;;16.20;64.00;;;;;;5040583;28;20120;-73
2022/01/20 11:16:45;;;;;;;4.13;1.70;;;15.40;55.60;;;;;;5030357;28;20081;-72
2022/01/20 11:19:16;;;;;;;4.80;1.80;;;14.60;58.80;;;;;;5052047;28;20045;-72
2022/01/20 11:21:44;;;;;;;7.45;2.00;;;15.40;63.50;;;;;;5055004;28;20052;-71
2022/01/20 11:24:17;;;;;;;4.07;1.90;;;15.40;63.40;;;;;;5051832;28;20552;-72
2022/01/20 11:26:49;;;;;;;5.82;1.80;;;16.30;60.20;;;;;;5035500;28;20084;-72
2022/01/20 11:29:17;;;;;;;4.10;1.80;;;;;;;;;;5035803;28;20085;-72
2022/01/20 11:31:45;;;;;;;5.25;1.98;;;15.50;55.30;;;;;;5039263;28;20064;-72
2022/01/20 11:34:15;;;;;;;4.40;1.80;;;15.50;55.30;;;;;;5034964;28;20491;-72
2022/01/20 11:36:42;;;;;;;3.47;1.70;;;;;;;;;;5035294;28;20670;-72
2022/01/20 11:39:09;;;;;;;3.75;1.67;;;15.60;63.30;;;;;;5035267;28;20478;-71
2022/01/20 11:41:39;;;;;;;4.90;1.75;;;14.70;56.60;;;;;;5035331;28;20469;-72
2022/01/20 11:44:10;;;;;;;4.18;1.80;;;15.80;56.10;;;;;;5034180;28;20054;-72
2022/01/20 11:46:39;;;;;;;5.38;1.77;;;15.40;62.90;;;;;;5034061;28;20140;-72
2022/01/20 11:49:08;;;;;;;4.68;1.80;;;15.60;63.50;;;;;;5034106;28;20058;-73
2022/01/20 11:51:49;;;;;;;4.78;1.80;;;15.60;63.30;;;;;;5034117;28;20104;-73
2022/01/20 11:54:27;;;;;;;4.50;1.42;;;15.80;63.30;;;;;;5041433;28;20119;-73
2022/01/20 11:57:05;;;;;;;6.32;1.80;;;16.00;63.30;;;;;;5053870;28;20053;-73
2022/01/20 11:59:36;;;;;;;6.15;1.80;;;15.50;62.90;;;;;;5033945;28;20129;-73
2022/01/20 12:02:03;;;;;;;4.22;1.55;;;16.20;56.90;;;;;;5033771;28;20096;-73
2022/01/20 12:04:34;;;;;;;5.93;1.95;;;15.10;63.00;;;;;;5034792;28;20097;-73
2022/01/20 12:07:01;;;;;;;4.13;1.60;;;;;;;;;;5043886;28;20549;-73
2022/01/20 12:09:30;;;;;;;5.45;2.08;;;15.50;55.10;;;;;;5050904;28;20576;-73
2022/01/20 12:11:56;;;;;;;4.38;1.67;;;15.60;63.00;;;;;;5041610;28;20049;-73
2022/01/20 12:14:32;;;;;;;5.63;1.70;;;15.60;56.60;;;;;;5038078;28;20074;-74
2022/01/20 12:17:05;;;;;;;6.25;1.83;;;15.50;55.20;;;;;;5044414;28;20053;-73
2022/01/20 12:19:32;;;;;;;5.88;1.65;;;;;;;;;;5039422;28;20469;-72
2022/01/20 12:22:00;;;;;;;3.20;1.40;;;15.40;63.10;;;;;;5048203;28;20136;-72
2022/01/20 12:24:27;;;;;;;3.53;1.80;;;14.50;62.40;;;;;;5039039;28;20144;-72
2022/01/20 12:26:54;;;;;;;3.47;1.70;;;;;;;;;;5033305;28;20473;-71
2022/01/20 12:29:20;;;;;;;5.18;1.40;;;15.50;63.20;;;;;;5048738;28;20148;-70
2022/01/20 12:31:49;;;;;;;4.07;1.33;;;15.40;55.30;;;;;;5034430;28;20045;-72
2022/01/20 12:34:16;;;;;;;2.78;1.40;;;15.50;55.70;;;;;;5032673;28;20050;-72
2022/01/20 12:36:50;;;;;;;3.60;1.48;;;15.40;55.20;;;;;;5046153;28;20550;-72
2022/01/20 12:39:25;;;;;;;3.13;1.48;;;15.40;63.20;;;;;;5044142;28;20132;-72
2022/01/20 12:41:56;;;;;;;3.10;1.60;;;15.40;62.70;;;;;;5033330;28;20064;-72
2022/01/20 12:44:24;;;;;;;3.20;1.50;;;15.40;62.90;;;;;;5046640;28;20045;-72
2022/01/20 12:46:51;;;;;;;4.65;1.60;;;14.60;62.70;;;;;;5051960;28;20056;-72
2022/01/20 12:49:19;;;;;;;3.17;1.50;;;14.60;63.00;;;;;;5052822;28;20135;-72
2022/01/20 12:51:46;;;;;;;3.88;1.30;;;15.40;63.20;;;;;;5052891;28;20141;-72
2022/01/20 12:54:16;;;;;;;4.07;1.52;;;15.40;63.10;;;;;;5046474;28;20051;-72
2022/01/20 12:56:45;;;;;;;3.80;1.48;;;15.40;62.70;;;;;;5049389;28;20061;-72
2022/01/20 12:59:13;;;;;;;2.80;1.30;;;15.40;63.20;;;;;;5033054;28;20140;-72
2022/01/20 13:01:41;;;;;;;3.70;1.40;;;16.10;63.50;;;;;;5032621;28;20136;-72
2022/01/20 13:04:09;;;;;;;2.92;1.40;;;15.40;62.90;;;;;;5032773;28;20406;-72
2022/01/20 13:06:36;;;;;;;3.35;1.50;;;15.90;63.10;;;;;;5032682;28;20505;-72
2022/01/20 13:09:06;;;;;;;3.95;1.50;;;15.40;61.40;;;;;;5032448;28;20053;-72
2022/01/20 13:11:36;;;;;;;4.70;1.77;;;15.30;55.20;;;;;;5032394;28;20080;-73
2022/01/20 13:14:04;;;;;;;2.33;1.20;;;15.30;61.50;;;;;;5032127;28;20042;-72
2022/01/20 13:16:32;;;;;;;3.95;1.40;;;15.30;63.00;;;;;;5032206;28;20136;-72
2022/01/20 13:19:00;;;;;;;2.40;1.27;;;15.00;61.20;;;;;;5032474;28;20061;-72
2022/01/20 13:21:36;;;;;;;5.20;1.42;;;15.30;62.30;;;;;;5042901;28;20057;-72
2022/01/20 13:24:03;;;;;;;4.40;1.30;;;;;;;;;;5051808;28;20049;-72
2022/01/20 13:26:30;;;;;;;3.55;1.45;;;15.20;63.00;;;;;;5045862;28;20061;-72
2022/01/20 13:29:01;;;;;;;2.53;1.20;;;15.30;62.70;;;;;;5032155;28;20132;-72
2022/01/20 13:31:29;;;;;;;1.95;1.20;;;15.20;62.90;;;;;;5032782;28;20053;-72
2022/01/20 13:33:59;;;;;;;2.08;1.15;;;15.10;62.90;;;;;;5045357;28;20060;-71
2022/01/20 13:36:37;;;;;;;2.83;1.25;;;14.50;62.60;;;;;;5042019;28;20047;-72
2022/01/20 13:39:04;;;;;;;2.47;1.20;;;;;;;;;;5035458;28;20506;-71
2022/01/20 13:41:31;;;;;;;4.07;1.42;;;14.50;62.40;;;;;;5031944;28;20065;-72
2022/01/20 13:46:45;;;;;;;4.13;1.40;;;14.60;62.90;;;;;;5044163;28;20041;-72
2022/01/20 13:49:14;;;;;;;3.88;1.40;;;15.10;55.20;;;;;;5042774;28;20140;-73
2022/01/20 13:51:40;;;;;;;3.58;1.23;;;15.20;62.90;;;;;;5033895;28;20128;-72
2022/01/20 13:54:07;;;;;;;3.50;1.70;;;15.30;63.10;;;;;;5038760;28;20055;-71
2022/01/20 13:56:34;;;;;;;4.85;1.50;;;15.10;55.90;;;;;;5041988;28;20059;-72
2022/01/20 13:59:05;;;;;;;3.05;1.50;;;15.10;62.70;;;;;;5036887;28;20084;-72
2022/01/20 14:01:32;;;;;;;3.58;1.20;;;;;;;;;;5042099;28;20055;-72
2022/01/20 14:04:00;;;;;;;3.63;1.83;;;15.20;63.00;;;;;;5040565;28;20072;-71
2022/01/20 14:06:27;;;;;;;2.25;1.40;;;14.50;62.30;;;;;;5040924;28;20132;-71
2022/01/20 14:08:54;;;;;;;4.40;1.50;;;;;;;;;;5039931;28;20049;-72
2022/01/20 14:11:21;;;;;;;3.28;1.50;;;14.90;62.80;;;;;;5039803;28;20417;-72
2022/01/20 14:13:48;;;;;;;4.72;1.65;;;;;;;;;;5040536;28;20144;-71